Oshawa Airport
CYOO : now visible

Airfield :











YOU CAN JOIN US ON...

 
LOGIN :

Register | Disclaimer

   EN    FR    IT 

 









Legend :    VFR   Marginal VFR   IFR   Intensive IFR   Very Intensive IFR
Visi :
Ceiling :
>= 8 km
>= 3000ft
5 to 8 km
1000 to 3000 ft
1500m to 5 km
500 to 1000 ft
800 to 1500m
200 to 500 ft
< 800m
< 200 ft
Symbols :   Thunderstorms  Fog  Heavy snow  Heavy precipitations  Wind > 20 kt






- Airport Elevation : 459 ft
- IATA code : YOO


CYOO - Oshawa

CURRENT METAR :
  • 181100Z AUTO 08009KT 9SM BKN017 OVC075 M08/M10 A3037 RMK SLP298

EXPIRED METARs :
  • 181000Z AUTO 07011KT 9SM OVC015 M08/M10 A3043 RMK PRESFR SLP315
  • 180900Z AUTO 09009KT 9SM BKN019 OVC090 M09/M10 A3050 RMK PRESFR SLP341
  • 180845Z AUTO 09007KT 9SM BKN021 OVC095 M09/M10 A3052 RMK PRESFR SLP348

TAF TAF CYOO
Valid from the 18 at 08:00 until the 18 at 20:00 UTC


180738Z 1808/1820 08008KT P6SM FEW020 OVC120
TEMPO 1808/1810 BKN020 OVC080
FM181000 09012KT P6SM SCT020 OVC060
TEMPO 1810/1815 5SM -SN BKN020 OVC040
BECMG 1810/1812 09012G22KT
FM181500 10015G25KT 1SM -SN VV010
TEMPO 1815/1816 3SM -SN OVC020
FM181600 10015G25KT 3/4SM -SN BLSN VV006
TEMPO 1816/1820 1SM -SN VV010 RMK FCST BASED ON AUTO OBS. NXT FCST BY 181400Z



MET'MAP, your aeronautical weather chart ! - Copyright ORBIFLY December 2007 - Disclaimer

ORBIFLY MET'MAP TEAM :

Programming & Development : Alexandra Zaïnal
Concept & original design : Baudouin d'Aumeries
Assistance for programming : Marc-Olivier Méhu
Technical & hardware support : Manuel Goepfert

Contact : metmap@orbifly.com




SOURCES & CREDITS :

   NOAA       Earth
Advisory